Selected Aviation Weather Reports

Never base important decisions on this or any weather information obtained from a non-NWS site!

Last update: Feb 22, 2018, 12:09 pm CDT

 

Multiple warnings are in effect!
Please click here for more information!

 

METAR for KATL, KDFW, KEWR, KLAX, KMEM & KORD

METAR is also known as Meteorological Terminal Aviation Routine Weather Report or Met eorological Aerodrome Report.

Final Testing in progress.

(09/9/17 - 4:31 pm)

My sincere thanks for your help!


2018/02/22 17:54 KATL 221754Z 14006KT 10SM SCT025 BKN035 BKN050 24/18 A3044 RMK AO2 T02440183

KATL, Feb 22, 2018, 17:54Z
Hartsfield-Jackson Atlanta International Airport
Wind: 140° @ 6 kts
Visibility: 10 Statute miles
Clouds: Scattered @ 2,500 ft
Broken @ 3,500 ft
Broken @ 5,000 ft
Altimeter: 30.44 in/Hg
Temperature: 75.92°F (24.4°C)
Dew Point: 64.94°F (18.3°C)

2018/02/22 17:53 KDFW 221753Z 30006KT 1/2SM R17C/P6000FT BR BKN005 OVC010 04/02 A3026 RMK AO2 SFC VIS 1 1/2 RAE43 SLP248 P0003 60036 T00390022 10039 20017 50013 $

KDFW, Feb 22, 2018, 17:53Z
Dallas-Ft. Worth International Airport
Wind: 300° @ 6 kts
Visibility: 1/2 Statute mile with Mist
Runway 17C RVR prevailing visibility 6000 ft
Clouds: Broken @ 500 ft
Overcast @ 1,000 ft
Altimeter: 30.26 in/Hg
Sea Level Pressure: 1024.8 mb
Temperature: 39.02°F (3.9°C)
Dew Point: 35.96°F (2.2°C)
Pressure trend, past 3 hrs: Pressure Trend 1.3 in/Hg
High Temp, past 6 hrs: 39.02°F (3.9°C)
Low Temp, past 6 hrs: 35.06°F (1.7°C)
Precipitation, previous hr: 00.03 inches
Precipitation, last 6 hrs: 00.36 inches
Additional Remarks: 
Surface Visibility 1 & 1/2 miles.
Rain ended @ 43 past the hr.
Maintenance Needed on the System.

2018/02/22 17:51 KEWR 221751Z 06008KT 10SM OVC036 07/01 A3056 RMK AO2 RAE1652B36E51 SLP347 P0000 60001 T00720011 10078 20061 58017

KEWR, Feb 22, 2018, 17:51Z
Newark Liberty International Airport
Wind: 060° @ 8 kts
Visibility: 10 Statute miles
Clouds: Overcast @ 3,600 ft
Altimeter: 30.56 in/Hg
Sea Level Pressure: 1034.7 mb
Temperature: 44.96°F (7.2°C)
Dew Point: 33.98°F (1.1°C)
Pressure trend, past 3 hrs: Pressure Trend 1.7 in/Hg
High Temp, past 6 hrs: 46.04°F (7.8°C)
Low Temp, past 6 hrs: 42.98°F (6.1°C)
Precipitation, previous hr: None
Precipitation, last 6 hrs: 00.01 inches
Additional Remarks: 
Rain ended 16:52z last hr and began @ 36 and ended again @ 51 past this hr.

2018/02/22 17:53 KLAX 221753Z 12005KT 10SM FEW025 SCT037 13/04 A3025 RMK AO2 SLP241 T01330044 10133 20061 51015 $

KLAX, Feb 22, 2018, 17:53Z
Los Angeles International Airport
Wind: 120° @ 5 kts
Visibility: 10 Statute miles
Clouds: Few @ 2,500 ft
Scattered @ 3,700 ft
Altimeter: 30.25 in/Hg
Sea Level Pressure: 1024.1 mb
Temperature: 55.94°F (13.3°C)
Dew Point: 39.92°F (4.4°C)
Pressure trend, past 3 hrs: Pressure Trend 1.5 in/Hg
High Temp, past 6 hrs: 55.94°F (13.3°C)
Low Temp, past 6 hrs: 42.98°F (6.1°C)
Additional Remarks: 
Maintenance Needed on the System.

2018/02/22 17:54 KMEM 221754Z 06006KT 6SM -DZ BR OVC005 09/08 A3035 RMK AO2 DZE07B47 SLP277 P0000 60001 T00890078 10089 20056 58000 $

KMEM, Feb 22, 2018, 17:54Z
Memphis International Airport
Wind: 060° @ 6 kts
Visibility: 6 Statute miles with Light Drizzle & Mist
Clouds: Overcast @ 500 ft
Altimeter: 30.35 in/Hg
Sea Level Pressure: 1027.7 mb
Temperature: 48.02°F (8.9°C)
Dew Point: 46.04°F (7.8°C)
Pressure trend, past 3 hrs: Pressure Trend 0.0 in/Hg
High Temp, past 6 hrs: 48.02°F (8.9°C)
Low Temp, past 6 hrs: 42.08°F (5.6°C)
Precipitation, previous hr: None
Precipitation, last 6 hrs: 00.01 inches
Additional Remarks: 
Drizzle ended @ 7 and began @ 47 past the hr.
Maintenance Needed on the System.

2018/02/22 17:51 KORD 221751Z 07012KT 10SM FEW017 SCT070 BKN130 04/M03 A3051 RMK AO2 SLP338 T00391028 10044 20000 58013

KORD, Feb 22, 2018, 17:51Z
Chicago O’Hare International Airport
Wind: 070° @ 12 kts
Visibility: 10 Statute miles
Clouds: Few @ 1,700 ft
Scattered @ 7,000 ft
Broken @ 13,000 ft
Altimeter: 30.51 in/Hg
Sea Level Pressure: 1033.8 mb
Temperature: 39.02°F (3.9°C)
Dew Point: 26.96°F (-2.8°C)
Pressure trend, past 3 hrs: Pressure Trend 1.3 in/Hg
High Temp, past 6 hrs: 39.92°F (4.4°C)
Low Temp, past 6 hrs: 32°F (0.0°C)

Top of page